Time;durP1;ratioP1;P1;durP2;ratioP2;P2;SDS_P1;SDS_P2;PMS_P1;PMS_P2;Temp;Humidity;BMP_temperature;BMP_pressure;BME280_temperature;BME280_humidity;BME280_pressure;Samples;Min_cycle;Max_cycle;Signal;HPM_P1;HPM_P2
2023/11/01 00:02:22;;;;;;;9.30;5.97;;;;;;;;;;754694;183;921613;-66
2023/11/01 00:04:48;;;;;;;7.50;5.50;;;;;;;;;;756981;184;918973;-66
2023/11/01 00:07:15;;;;;;;11.00;6.80;;;;;;;;;;757072;184;921004;-66
2023/11/01 00:09:40;;;;;;;26.93;6.67;;;;;;;;;;757920;184;817200;-68
2023/11/01 00:12:06;;;;;;;10.27;6.70;;;;;;;;;;760677;184;917398;-68
2023/11/01 00:14:32;;;;;;;11.40;6.17;;;;;;;;;;755738;183;919167;-68
2023/11/01 00:16:57;;;;;;;8.80;6.37;;;;;;;;;;752173;184;920737;-67
2023/11/01 00:19:23;;;;;;;7.37;5.18;;;;;;;;;;759814;182;918121;-67
2023/11/01 00:21:49;;;;;;;9.97;6.47;;;;;;;;;;763490;180;919466;-67
2023/11/01 00:24:15;;;;;;;9.37;7.00;;;;;;;;;;757074;183;916230;-67
2023/11/01 00:26:41;;;;;;;9.67;6.10;;;;;;;;;;766755;177;883057;-67
2023/11/01 00:29:07;;;;;;;9.90;6.12;;;;;;;;;;759044;177;919394;-68
2023/11/01 00:31:32;;;;;;;10.10;6.80;;;;;;;;;;758166;184;919235;-68
2023/11/01 00:33:58;;;;;;;6.93;5.40;;;;;;;;;;757177;184;920030;-67
2023/11/01 00:36:24;;;;;;;8.40;5.80;;;;;;;;;;764251;184;816319;-67
2023/11/01 00:38:50;;;;;;;10.23;6.43;;;;;;;;;;767891;180;815365;-67
2023/11/01 00:41:16;;;;;;;7.27;6.33;;;;;;;;;;756334;182;806274;-67
2023/11/01 00:43:42;;;;;;;10.23;5.60;;;;;;;;;;759100;184;919256;-67
2023/11/01 00:46:08;;;;;;;13.03;6.17;;;;;;;;;;755208;184;919419;-67
2023/11/01 00:48:34;;;;;;;7.70;5.60;;;;;;;;;;758757;184;913895;-68
2023/11/01 00:50:59;;;;;;;9.20;4.77;;;;;;;;;;760282;183;919003;-67
2023/11/01 00:53:25;;;;;;;6.10;4.70;;;;;;;;;;761615;180;918671;-69
2023/11/01 00:55:51;;;;;;;6.80;5.07;;;;;;;;;;766301;179;922410;-69
2023/11/01 00:58:17;;;;;;;6.87;5.15;;;;;;;;;;757990;183;920072;-69
2023/11/01 01:00:43;;;;;;;6.97;4.83;;;;;;;;;;750179;184;830258;-67
2023/11/01 01:03:10;;;;;;;9.70;5.57;;;;;;;;;;755276;184;920045;-68
2023/11/01 01:05:35;;;;;;;8.83;5.63;;;;;;;;;;755851;184;817476;-67
2023/11/01 01:08:01;;;;;;;7.47;5.30;;;;;;;;;;766655;180;920012;-67
2023/11/01 01:10:26;;;;;;;6.22;5.40;;;;;;;;;;765823;179;917765;-66
2023/11/01 01:12:52;;;;;;;8.13;5.70;;;;;;;;;;763080;178;917583;-68
2023/11/01 01:15:18;;;;;;;11.30;5.53;;;;;;;;;;761342;183;917173;-67
2023/11/01 01:17:44;;;;;;;11.40;5.00;;;;;;;;;;755018;184;918800;-69
2023/11/01 01:20:10;;;;;;;11.30;6.90;;;;;;;;;;757280;183;918277;-67
2023/11/01 01:22:36;;;;;;;7.47;5.00;;;;;;;;;;761786;184;919526;-66
2023/11/01 01:25:02;;;;;;;11.30;5.97;;;;;;;;;;757808;182;918837;-68
2023/11/01 01:27:28;;;;;;;8.93;5.03;;;;;;;;;;761446;178;921019;-68
2023/11/01 01:29:54;;;;;;;13.37;6.73;;;;;;;;;;753745;184;919269;-67
2023/11/01 01:32:19;;;;;;;11.83;6.03;;;;;;;;;;759722;182;916210;-67
2023/11/01 01:34:45;;;;;;;10.10;5.17;;;;;;;;;;757897;183;903389;-67
2023/11/01 01:37:11;;;;;;;7.28;5.32;;;;;;;;;;756791;183;920806;-67
2023/11/01 01:39:37;;;;;;;18.10;6.80;;;;;;;;;;762633;183;919526;-67
2023/11/01 01:42:03;;;;;;;9.93;5.50;;;;;;;;;;757672;183;920524;-67
2023/11/01 01:44:29;;;;;;;7.67;6.47;;;;;;;;;;751828;184;919218;-67
2023/11/01 01:46:56;;;;;;;7.27;6.10;;;;;;;;;;752340;184;919598;-67
2023/11/01 01:49:21;;;;;;;9.60;6.10;;;;;;;;;;756495;184;920372;-68
2023/11/01 01:51:46;;;;;;;14.17;6.13;;;;;;;;;;759154;184;919246;-67
2023/11/01 01:54:12;;;;;;;7.80;4.93;;;;;;;;;;755994;183;919005;-67
2023/11/01 01:56:38;;;;;;;9.90;6.17;;;;;;;;;;752533;184;816946;-67
2023/11/01 01:59:04;;;;;;;13.73;4.57;;;;;;;;;;752309;183;1226452;-67
2023/11/01 02:01:30;;;;;;;7.10;5.57;;;;;;;;;;751805;185;938388;-67
2023/11/01 02:03:56;;;;;;;8.48;6.15;;;;;;;;;;761500;184;918334;-66
2023/11/01 02:06:21;;;;;;;10.97;5.37;;;;;;;;;;765479;180;923547;-66
2023/11/01 02:08:47;;;;;;;9.23;5.80;;;;;;;;;;752940;184;927247;-67
2023/11/01 02:11:14;;;;;;;10.20;6.00;;;;;;;;;;761420;184;929297;-67
2023/11/01 02:13:39;;;;;;;11.80;5.83;;;;;;;;;;755107;183;920726;-67
2023/11/01 02:16:05;;;;;;;10.07;5.63;;;;;;;;;;755841;184;919753;-67
2023/11/01 02:18:32;;;;;;;9.93;6.33;;;;;;;;;;757491;183;918195;-66
2023/11/01 02:20:57;;;;;;;7.85;5.30;;;;;;;;;;757307;184;919121;-66
2023/11/01 02:23:26;;;;;;;7.17;5.97;;;;;;;;;;752039;184;934838;-67
2023/11/01 02:25:52;;;;;;;10.10;5.60;;;;;;;;;;757492;178;919476;-66
2023/11/01 02:28:17;;;;;;;10.17;6.27;;;;;;;;;;773021;180;903824;-67
2023/11/01 02:30:43;;;;;;;9.70;6.77;;;;;;;;;;755246;185;919122;-68
2023/11/01 02:33:09;;;;;;;9.47;5.87;;;;;;;;;;755398;184;919123;-67
2023/11/01 02:35:35;;;;;;;9.37;6.73;;;;;;;;;;764548;184;918793;-67
2023/11/01 02:38:01;;;;;;;13.13;6.30;;;;;;;;;;756563;183;918787;-67
2023/11/01 02:40:27;;;;;;;8.70;6.47;;;;;;;;;;755407;184;916047;-67
2023/11/01 02:42:55;;;;;;;7.90;5.43;;;;;;;;;;771877;178;920432;-66
2023/11/01 02:45:18;;;;;;;10.20;5.97;;;;;;;;;;759802;180;919147;-67
2023/11/01 02:47:44;;;;;;;13.10;6.00;;;;;;;;;;759461;183;917955;-67
2023/11/01 02:50:10;;;;;;;12.30;5.50;;;;;;;;;;762192;177;918823;-67
2023/11/01 02:52:37;;;;;;;6.73;5.20;;;;;;;;;;770208;177;1020297;-67
2023/11/01 02:55:02;;;;;;;8.63;4.97;;;;;;;;;;758793;180;913889;-67
2023/11/01 02:57:28;;;;;;;10.63;6.20;;;;;;;;;;763043;180;922522;-67
2023/11/01 02:59:54;;;;;;;8.30;5.77;;;;;;;;;;767758;180;919441;-66
2023/11/01 03:02:20;;;;;;;8.67;6.10;;;;;;;;;;758932;180;920229;-67
2023/11/01 03:04:46;;;;;;;8.05;5.57;;;;;;;;;;768097;179;939508;-66
2023/11/01 03:07:12;;;;;;;7.60;5.30;;;;;;;;;;771815;180;919034;-67
2023/11/01 03:09:38;;;;;;;7.33;5.33;;;;;;;;;;752967;184;919290;-67
2023/11/01 03:12:04;;;;;;;9.93;5.53;;;;;;;;;;770442;179;918762;-68
2023/11/01 03:14:29;;;;;;;8.30;4.83;;;;;;;;;;759578;178;814617;-68
2023/11/01 03:16:55;;;;;;;6.32;4.78;;;;;;;;;;749393;184;915935;-67
2023/11/01 03:19:21;;;;;;;6.83;4.20;;;;;;;;;;761371;179;915796;-66
2023/11/01 03:21:47;;;;;;;6.53;4.93;;;;;;;;;;761824;180;920872;-68
2023/11/01 03:24:12;;;;;;;7.90;5.00;;;;;;;;;;773321;178;916525;-68
2023/11/01 03:26:40;;;;;;;6.30;4.43;;;;;;;;;;770590;180;917542;-68
2023/11/01 03:29:04;;;;;;;6.60;4.93;;;;;;;;;;752494;184;919075;-67
2023/11/01 03:31:30;;;;;;;6.80;4.70;;;;;;;;;;762245;183;918688;-67
2023/11/01 03:33:56;;;;;;;6.07;4.23;;;;;;;;;;754136;183;920902;-66
2023/11/01 03:36:22;;;;;;;13.20;5.33;;;;;;;;;;761669;183;815290;-67
2023/11/01 03:38:47;;;;;;;6.50;3.90;;;;;;;;;;760815;183;920565;-68
2023/11/01 03:41:13;;;;;;;8.43;4.40;;;;;;;;;;753597;184;916921;-68
2023/11/01 03:43:39;;;;;;;8.80;4.97;;;;;;;;;;757022;184;817081;-67
2023/11/01 03:46:05;;;;;;;6.47;4.63;;;;;;;;;;754688;183;870883;-67
2023/11/01 03:48:31;;;;;;;6.83;4.80;;;;;;;;;;761168;184;914651;-67
2023/11/01 03:50:57;;;;;;;8.97;4.90;;;;;;;;;;753872;184;943239;-67
2023/11/01 03:53:22;;;;;;;6.65;3.92;;;;;;;;;;756278;183;859150;-67
2023/11/01 03:55:48;;;;;;;6.63;4.13;;;;;;;;;;765381;181;919187;-67
2023/11/01 03:58:14;;;;;;;6.80;4.70;;;;;;;;;;759373;183;919058;-67
2023/11/01 04:00:40;;;;;;;6.13;4.03;;;;;;;;;;757796;180;918345;-67
2023/11/01 04:03:06;;;;;;;6.93;4.17;;;;;;;;;;765499;179;919080;-68
2023/11/01 04:05:32;;;;;;;7.37;4.70;;;;;;;;;;756217;183;918354;-68
2023/11/01 04:07:58;;;;;;;6.60;4.00;;;;;;;;;;753369;184;922959;-68
2023/11/01 04:10:24;;;;;;;6.97;3.87;;;;;;;;;;759514;183;1020972;-67
2023/11/01 04:12:50;;;;;;;6.70;4.37;;;;;;;;;;751429;183;815127;-66
2023/11/01 04:15:16;;;;;;;5.53;4.27;;;;;;;;;;766426;178;816508;-68
2023/11/01 04:17:41;;;;;;;22.10;6.33;;;;;;;;;;760095;180;919210;-68
2023/11/01 04:20:08;;;;;;;35.97;6.03;;;;;;;;;;764169;183;919161;-66
2023/11/01 04:22:34;;;;;;;15.23;4.23;;;;;;;;;;758043;184;918289;-67
2023/11/01 04:24:59;;;;;;;6.43;4.40;;;;;;;;;;756982;183;919068;-66
2023/11/01 04:27:25;;;;;;;6.10;4.27;;;;;;;;;;760242;184;918629;-66
2023/11/01 04:29:54;;;;;;;9.07;4.30;;;;;;;;;;753961;184;912623;-67
2023/11/01 04:32:17;;;;;;;7.62;4.50;;;;;;;;;;768640;178;918804;-66
2023/11/01 04:34:43;;;;;;;7.90;4.70;;;;;;;;;;759334;182;919803;-68
2023/11/01 04:37:08;;;;;;;9.40;5.23;;;;;;;;;;763855;178;919475;-66
2023/11/01 04:39:35;;;;;;;8.23;5.67;;;;;;;;;;755850;183;919410;-67
2023/11/01 04:42:04;;;;;;;21.73;6.93;;;;;;;;;;757441;184;917869;-68
2023/11/01 04:44:26;;;;;;;10.70;6.27;;;;;;;;;;759203;183;918858;-66
2023/11/01 04:46:52;;;;;;;11.53;5.50;;;;;;;;;;754044;183;918550;-66
2023/11/01 04:49:18;;;;;;;10.73;5.83;;;;;;;;;;758283;182;918408;-66
2023/11/01 04:51:44;;;;;;;13.17;6.20;;;;;;;;;;765948;180;918707;-67
2023/11/01 04:54:09;;;;;;;11.60;6.47;;;;;;;;;;757193;184;920685;-67
2023/11/01 04:56:35;;;;;;;11.43;6.40;;;;;;;;;;756647;184;920643;-66
2023/11/01 04:59:01;;;;;;;11.00;6.50;;;;;;;;;;760511;184;919216;-69
2023/11/01 05:01:30;;;;;;;9.43;6.20;;;;;;;;;;754942;184;918865;-67
2023/11/01 05:03:54;;;;;;;7.90;5.30;;;;;;;;;;767221;178;916939;-67
2023/11/01 05:06:20;;;;;;;12.37;7.10;;;;;;;;;;762622;179;920114;-66
2023/11/01 05:08:46;;;;;;;9.23;6.40;;;;;;;;;;758317;183;919887;-66
2023/11/01 05:11:12;;;;;;;8.17;6.17;;;;;;;;;;757043;183;919958;-67
2023/11/01 05:13:38;;;;;;;8.35;4.97;;;;;;;;;;755079;183;919200;-66
2023/11/01 05:16:04;;;;;;;15.50;4.93;;;;;;;;;;764135;184;920091;-66
2023/11/01 05:18:31;;;;;;;7.07;5.00;;;;;;;;;;761134;180;919659;-67
2023/11/01 05:20:56;;;;;;;7.03;4.87;;;;;;;;;;765962;179;920169;-66
2023/11/01 05:23:22;;;;;;;7.00;4.67;;;;;;;;;;760797;184;917718;-66
2023/11/01 05:25:48;;;;;;;13.93;7.00;;;;;;;;;;759669;180;865914;-68
2023/11/01 05:28:14;;;;;;;7.67;5.30;;;;;;;;;;759425;184;916687;-67
2023/11/01 05:30:41;;;;;;;8.68;5.28;;;;;;;;;;757837;184;919202;-67
2023/11/01 05:33:06;;;;;;;8.30;5.37;;;;;;;;;;755473;183;811381;-67
2023/11/01 05:35:36;;;;;;;8.20;5.13;;;;;;;;;;753957;184;915167;-68
2023/11/01 05:37:58;;;;;;;9.00;5.03;;;;;;;;;;756924;184;919372;-68
2023/11/01 05:40:23;;;;;;;9.20;5.40;;;;;;;;;;765389;180;910947;-68
2023/11/01 05:42:49;;;;;;;7.67;4.97;;;;;;;;;;761376;177;820300;-67
2023/11/01 05:45:16;;;;;;;7.60;5.40;;;;;;;;;;763903;180;913361;-66
2023/11/01 05:47:42;;;;;;;7.67;5.23;;;;;;;;;;765368;182;627047;-66
2023/11/01 05:50:07;;;;;;;6.00;4.67;;;;;;;;;;770429;177;628882;-67
2023/11/01 05:52:33;;;;;;;6.00;4.30;;;;;;;;;;760391;180;623774;-69
2023/11/01 05:54:59;;;;;;;7.33;4.90;;;;;;;;;;763815;182;632141;-67
2023/11/01 05:57:25;;;;;;;7.67;4.83;;;;;;;;;;770968;180;633304;-68
2023/11/01 05:59:51;;;;;;;15.43;5.37;;;;;;;;;;765373;177;644855;-67
2023/11/01 06:02:17;;;;;;;6.73;5.13;;;;;;;;;;762664;177;918003;-68
2023/11/01 06:04:43;;;;;;;7.07;4.60;;;;;;;;;;773048;178;873691;-68
2023/11/01 06:07:08;;;;;;;8.27;5.33;;;;;;;;;;764167;180;921975;-65
2023/11/01 06:09:34;;;;;;;7.45;4.78;;;;;;;;;;754794;184;919502;-66
2023/11/01 06:12:05;;;;;;;10.57;5.80;;;;;;;;;;761058;184;921166;-68
2023/11/01 06:14:26;;;;;;;7.33;5.07;;;;;;;;;;754014;184;919101;-67
2023/11/01 06:16:52;;;;;;;9.53;4.20;;;;;;;;;;756105;184;920923;-68
2023/11/01 06:19:18;;;;;;;8.87;3.97;;;;;;;;;;766551;183;717643;-67
2023/11/01 06:21:43;;;;;;;6.33;4.47;;;;;;;;;;758398;183;916647;-66
2023/11/01 06:24:09;;;;;;;8.70;4.53;;;;;;;;;;757373;184;918488;-66
2023/11/01 06:26:35;;;;;;;7.70;4.60;;;;;;;;;;764653;178;919828;-66
2023/11/01 06:29:01;;;;;;;9.40;4.70;;;;;;;;;;764967;179;918915;-66
2023/11/01 06:31:27;;;;;;;6.77;4.70;;;;;;;;;;767866;178;917883;-66
2023/11/01 06:33:53;;;;;;;8.47;4.80;;;;;;;;;;761434;177;920829;-66
2023/11/01 06:36:19;;;;;;;8.63;4.60;;;;;;;;;;760894;184;918910;-66
2023/11/01 06:38:44;;;;;;;5.83;4.13;;;;;;;;;;757580;183;921053;-66
2023/11/01 06:41:10;;;;;;;5.10;3.43;;;;;;;;;;756692;184;921436;-66
2023/11/01 06:43:36;;;;;;;6.83;3.83;;;;;;;;;;758154;183;819518;-68
2023/11/01 06:46:02;;;;;;;13.27;4.63;;;;;;;;;;756186;184;918597;-69
2023/11/01 06:48:28;;;;;;;11.83;3.90;;;;;;;;;;755767;184;921846;-68
2023/11/01 06:50:54;;;;;;;4.53;3.40;;;;;;;;;;759806;183;925697;-66
2023/11/01 06:53:19;;;;;;;5.50;3.63;;;;;;;;;;768715;178;921402;-69
2023/11/01 06:55:45;;;;;;;10.00;3.85;;;;;;;;;;754729;183;916004;-66
2023/11/01 06:58:11;;;;;;;5.10;3.77;;;;;;;;;;754223;183;842951;-68
2023/11/01 07:00:37;;;;;;;9.90;4.83;;;;;;;;;;753641;184;918786;-66
2023/11/01 07:03:03;;;;;;;11.03;4.33;;;;;;;;;;769111;178;869016;-66
2023/11/01 07:05:29;;;;;;;4.20;3.33;;;;;;;;;;765515;177;921071;-67
2023/11/01 07:07:55;;;;;;;7.80;4.53;;;;;;;;;;761718;183;817292;-68
2023/11/01 07:10:20;;;;;;;4.80;3.57;;;;;;;;;;756618;184;915887;-68
2023/11/01 07:12:46;;;;;;;8.50;3.50;;;;;;;;;;763289;180;912293;-65
2023/11/01 07:15:12;;;;;;;9.10;3.20;;;;;;;;;;760855;182;811825;-68
2023/11/01 07:17:38;;;;;;;7.73;3.80;;;;;;;;;;756575;184;918283;-68
2023/11/01 07:20:04;;;;;;;6.10;3.70;;;;;;;;;;753295;183;922010;-66
2023/11/01 07:22:30;;;;;;;6.53;3.90;;;;;;;;;;757997;183;915797;-69
2023/11/01 07:24:56;;;;;;;10.13;3.30;;;;;;;;;;756956;183;910358;-67
2023/11/01 07:27:22;;;;;;;6.17;3.50;;;;;;;;;;765214;178;918556;-68
2023/11/01 07:29:47;;;;;;;5.43;3.23;;;;;;;;;;755149;184;919316;-70
2023/11/01 07:32:13;;;;;;;5.10;3.10;;;;;;;;;;759896;183;919671;-68
2023/11/01 07:34:40;;;;;;;5.93;3.40;;;;;;;;;;771432;179;917377;-69
2023/11/01 07:37:05;;;;;;;7.23;4.20;;;;;;;;;;764730;180;924674;-69
2023/11/01 07:39:31;;;;;;;5.53;3.57;;;;;;;;;;768191;180;889665;-70
2023/11/01 07:41:57;;;;;;;4.07;2.90;;;;;;;;;;756917;181;825779;-69
2023/11/01 07:44:23;;;;;;;4.17;2.57;;;;;;;;;;761571;179;919126;-65
2023/11/01 07:46:49;;;;;;;4.37;2.60;;;;;;;;;;771619;180;919711;-66
2023/11/01 07:49:14;;;;;;;5.77;2.63;;;;;;;;;;760961;178;916204;-67
2023/11/01 07:51:41;;;;;;;3.75;2.60;;;;;;;;;;759128;184;920691;-66
2023/11/01 07:54:09;;;;;;;3.77;2.23;;;;;;;;;;753818;183;917495;-69
2023/11/01 07:56:32;;;;;;;5.37;2.70;;;;;;;;;;754851;184;918627;-66
2023/11/01 07:58:58;;;;;;;6.20;3.37;;;;;;;;;;755757;180;917749;-69
2023/11/01 08:01:24;;;;;;;4.03;2.50;;;;;;;;;;758790;179;918726;-69
2023/11/01 08:03:50;;;;;;;4.10;2.20;;;;;;;;;;770390;179;818147;-69
2023/11/01 08:06:15;;;;;;;4.10;2.70;;;;;;;;;;753370;184;919786;-68
2023/11/01 08:08:41;;;;;;;4.43;2.30;;;;;;;;;;754365;184;891095;-68
2023/11/01 08:11:07;;;;;;;4.27;2.40;;;;;;;;;;761069;184;806289;-70
2023/11/01 08:13:33;;;;;;;3.27;2.13;;;;;;;;;;756897;184;742501;-69
2023/11/01 08:15:59;;;;;;;5.07;3.60;;;;;;;;;;755920;184;933309;-66
2023/11/01 08:18:28;;;;;;;4.17;2.37;;;;;;;;;;759165;184;918035;-66
2023/11/01 08:20:53;;;;;;;8.93;2.50;;;;;;;;;;759303;184;916366;-66
2023/11/01 08:23:17;;;;;;;3.50;2.60;;;;;;;;;;753771;184;920544;-66
2023/11/01 08:25:43;;;;;;;3.80;2.43;;;;;;;;;;754641;184;968679;-69
2023/11/01 08:28:09;;;;;;;6.30;2.70;;;;;;;;;;761681;184;918198;-65
2023/11/01 08:30:35;;;;;;;6.03;2.43;;;;;;;;;;754288;184;918582;-66
2023/11/01 08:33:01;;;;;;;4.93;2.40;;;;;;;;;;768660;180;816817;-66
2023/11/01 08:35:27;;;;;;;4.90;2.30;;;;;;;;;;772459;180;918425;-70
2023/11/01 08:37:52;;;;;;;5.90;2.60;;;;;;;;;;758343;180;919571;-70
2023/11/01 08:40:18;;;;;;;3.17;1.80;;;;;;;;;;757824;183;910919;-70
2023/11/01 08:42:44;;;;;;;5.20;2.00;;;;;;;;;;768651;180;919354;-69
2023/11/01 08:45:10;;;;;;;2.90;1.40;;;;;;;;;;765882;178;816002;-70
2023/11/01 08:47:36;;;;;;;3.87;1.80;;;;;;;;;;755190;183;914971;-66
2023/11/01 08:50:02;;;;;;;6.57;1.60;;;;;;;;;;757332;184;919156;-67
2023/11/01 08:52:28;;;;;;;6.83;2.10;;;;;;;;;;760910;184;1124039;-70
2023/11/01 08:54:53;;;;;;;3.00;1.60;;;;;;;;;;757440;183;918862;-70
2023/11/01 08:57:22;;;;;;;8.10;2.00;;;;;;;;;;759465;182;919469;-69
2023/11/01 08:59:45;;;;;;;2.97;2.10;;;;;;;;;;766100;180;918720;-67
2023/11/01 09:02:11;;;;;;;3.80;1.80;;;;;;;;;;758251;180;906451;-66
2023/11/01 09:04:37;;;;;;;5.73;1.60;;;;;;;;;;765613;177;921103;-68
2023/11/01 09:07:03;;;;;;;3.80;1.93;;;;;;;;;;760678;183;818465;-66
2023/11/01 09:09:29;;;;;;;3.20;1.90;;;;;;;;;;755910;183;829380;-69
2023/11/01 09:11:54;;;;;;;2.60;1.60;;;;;;;;;;754460;184;912287;-68
2023/11/01 09:14:21;;;;;;;2.92;2.33;;;;;;;;;;770159;180;937814;-69
2023/11/01 09:16:47;;;;;;;3.53;1.83;;;;;;;;;;746313;185;911895;-70
2023/11/01 09:19:12;;;;;;;3.47;2.03;;;;;;;;;;755376;183;854151;-69
2023/11/01 09:21:39;;;;;;;2.63;1.70;;;;;;;;;;762237;180;890639;-70
2023/11/01 09:24:04;;;;;;;3.30;2.00;;;;;;;;;;766017;178;920098;-69
2023/11/01 09:26:30;;;;;;;2.60;1.60;;;;;;;;;;755415;183;925425;-65
2023/11/01 09:28:56;;;;;;;3.23;1.80;;;;;;;;;;755999;179;918389;-70
2023/11/01 09:31:22;;;;;;;3.67;1.90;;;;;;;;;;768308;180;922026;-72
2023/11/01 09:33:48;;;;;;;5.63;2.40;;;;;;;;;;761783;179;818892;-69
2023/11/01 09:36:13;;;;;;;3.13;1.70;;;;;;;;;;766710;180;918987;-70
2023/11/01 09:38:39;;;;;;;3.37;2.10;;;;;;;;;;760716;183;918852;-69
2023/11/01 09:41:06;;;;;;;4.20;1.83;;;;;;;;;;756863;183;813745;-67
2023/11/01 09:43:31;;;;;;;7.10;1.80;;;;;;;;;;754934;183;915206;-70
2023/11/01 09:45:57;;;;;;;8.80;2.33;;;;;;;;;;757212;183;792696;-69
2023/11/01 09:48:23;;;;;;;2.43;1.50;;;;;;;;;;759404;184;818717;-70
2023/11/01 09:50:49;;;;;;;4.90;2.97;;;;;;;;;;756770;184;814209;-69
2023/11/01 09:53:16;;;;;;;3.57;1.90;;;;;;;;;;757883;183;918042;-69
2023/11/01 09:55:40;;;;;;;8.40;2.77;;;;;;;;;;767293;180;915866;-69
2023/11/01 09:58:06;;;;;;;4.80;2.17;;;;;;;;;;765505;179;922332;-66
2023/11/01 10:00:32;;;;;;;4.00;1.70;;;;;;;;;;764956;180;858565;-69
2023/11/01 10:02:58;;;;;;;3.73;2.00;;;;;;;;;;766401;179;895430;-69
2023/11/01 10:05:24;;;;;;;3.00;1.77;;;;;;;;;;761305;178;902889;-66
2023/11/01 10:07:49;;;;;;;3.70;1.53;;;;;;;;;;757400;184;932838;-69
2023/11/01 10:10:16;;;;;;;3.10;1.85;;;;;;;;;;763950;181;918455;-69
2023/11/01 10:12:42;;;;;;;4.00;1.57;;;;;;;;;;760295;177;921281;-66
2023/11/01 10:15:08;;;;;;;2.90;1.57;;;;;;;;;;752948;183;917289;-66
2023/11/01 10:17:34;;;;;;;4.30;1.60;;;;;;;;;;755482;182;931234;-69
2023/11/01 10:20:00;;;;;;;4.10;1.62;;;;;;;;;;772258;180;921390;-70
2023/11/01 10:22:26;;;;;;;4.70;1.70;;;;;;;;;;754686;184;921355;-66
2023/11/01 10:24:54;;;;;;;3.40;1.80;;;;;;;;;;757102;184;889874;-66
2023/11/01 10:27:17;;;;;;;2.93;1.97;;;;;;;;;;760045;184;918753;-69
2023/11/01 10:29:47;;;;;;;3.37;2.20;;;;;;;;;;758235;183;819701;-67
2023/11/01 10:32:13;;;;;;;3.13;1.90;;;;;;;;;;757179;184;919298;-70
2023/11/01 10:34:37;;;;;;;2.77;1.80;;;;;;;;;;755099;184;919606;-67
2023/11/01 10:37:05;;;;;;;6.73;2.17;;;;;;;;;;757284;184;817035;-69
2023/11/01 10:39:35;;;;;;;3.70;2.28;;;;;;;;;;754058;184;899502;-69
2023/11/01 10:41:57;;;;;;;5.80;2.57;;;;;;;;;;755042;183;914535;-69
2023/11/01 10:44:23;;;;;;;3.45;1.85;;;;;;;;;;758738;184;917975;-65
2023/11/01 10:46:49;;;;;;;3.00;2.00;;;;;;;;;;753448;183;1062368;-69
2023/11/01 10:49:15;;;;;;;4.53;2.60;;;;;;;;;;755284;184;917346;-65
2023/11/01 10:51:41;;;;;;;4.70;2.27;;;;;;;;;;771799;180;818804;-69
2023/11/01 10:54:07;;;;;;;7.27;1.90;;;;;;;;;;754975;184;917090;-70
2023/11/01 10:56:33;;;;;;;5.20;2.10;;;;;;;;;;755384;182;870401;-68
2023/11/01 10:59:01;;;;;;;4.47;2.08;;;;;;;;;;754924;184;916942;-66
2023/11/01 11:01:27;;;;;;;4.83;2.33;;;;;;;;;;755222;184;822343;-69
2023/11/01 11:03:53;;;;;;;2.70;1.80;;;;;;;;;;756724;183;913324;-69
2023/11/01 11:06:19;;;;;;;3.73;1.60;;;;;;;;;;755103;183;919279;-66
2023/11/01 11:08:44;;;;;;;3.90;1.87;;;;;;;;;;772799;177;903660;-68
2023/11/01 11:11:13;;;;;;;2.73;1.63;;;;;;;;;;749591;183;826997;-66
2023/11/01 11:13:40;;;;;;;3.73;2.17;;;;;;;;;;755958;183;919259;-66
2023/11/01 11:16:07;;;;;;;9.87;1.93;;;;;;;;;;760509;183;918132;-66
2023/11/01 11:18:37;;;;;;;4.23;1.80;;;;;;;;;;759541;184;918519;-66
2023/11/01 11:21:03;;;;;;;2.80;1.53;;;;;;;;;;754677;184;917867;-69
2023/11/01 11:23:30;;;;;;;2.83;1.70;;;;;;;;;;757081;183;820604;-67
2023/11/01 11:25:55;;;;;;;2.80;1.73;;;;;;;;;;763782;180;888974;-69
2023/11/01 11:28:39;;;;;;;2.57;1.50;;;;;;;;;;762994;177;919301;-65
2023/11/01 11:31:05;;;;;;;4.97;1.50;;;;;;;;;;753560;184;926164;-65
2023/11/01 11:33:33;;;;;;;3.53;1.75;;;;;;;;;;753122;184;919013;-68
2023/11/01 11:36:04;;;;;;;4.20;1.80;;;;;;;;;;754063;184;919120;-67
2023/11/01 11:38:32;;;;;;;2.40;1.57;;;;;;;;;;765459;180;918116;-72
2023/11/01 11:41:09;;;;;;;4.50;2.00;;;;;;;;;;759452;180;917091;-70
2023/11/01 11:43:42;;;;;;;3.37;2.20;;;;;;;;;;759658;180;843197;-71
2023/11/01 11:46:27;;;;;;;3.83;1.90;;;;;;;;;;760333;180;917936;-71
2023/11/01 11:48:53;;;;;;;3.83;1.93;;;;;;;;;;755310;184;897116;-70
2023/11/01 11:51:19;;;;;;;3.90;1.80;;;;;;;;;;754682;184;919841;-72
2023/11/01 11:53:45;;;;;;;3.50;2.00;;;;;;;;;;753788;184;910660;-70
2023/11/01 11:56:10;;;;;;;4.57;1.80;;;;;;;;;;759978;180;918874;-65
2023/11/01 11:58:36;;;;;;;3.45;1.75;;;;;;;;;;753366;184;860067;-70
2023/11/01 12:01:02;;;;;;;5.07;2.00;;;;;;;;;;761352;184;914027;-65
2023/11/01 12:03:28;;;;;;;6.73;2.63;;;;;;;;;;757154;184;885353;-70
2023/11/01 12:05:54;;;;;;;3.40;1.83;;;;;;;;;;765624;179;820254;-70
2023/11/01 12:08:19;;;;;;;2.80;1.60;;;;;;;;;;759102;184;923075;-70
2023/11/01 12:10:49;;;;;;;3.20;1.70;;;;;;;;;;765154;178;919163;-70
2023/11/01 12:13:15;;;;;;;4.00;1.93;;;;;;;;;;754663;183;900951;-67
2023/11/01 12:15:41;;;;;;;2.80;1.57;;;;;;;;;;755593;183;918796;-69
2023/11/01 12:18:10;;;;;;;3.43;2.00;;;;;;;;;;762536;183;816770;-66
2023/11/01 12:20:35;;;;;;;3.17;1.87;;;;;;;;;;765113;179;915403;-70
2023/11/01 12:23:01;;;;;;;5.37;1.87;;;;;;;;;;765762;178;916906;-71
2023/11/01 12:25:27;;;;;;;2.53;1.70;;;;;;;;;;769138;179;815408;-69
2023/11/01 12:27:53;;;;;;;2.47;1.47;;;;;;;;;;756815;184;919058;-70
2023/11/01 12:30:20;;;;;;;2.67;1.40;;;;;;;;;;762266;178;918861;-70
2023/11/01 12:32:46;;;;;;;2.60;1.30;;;;;;;;;;765359;181;918530;-67
2023/11/01 12:35:12;;;;;;;2.77;1.23;;;;;;;;;;760935;179;910385;-71
2023/11/01 12:37:41;;;;;;;2.73;1.40;;;;;;;;;;765555;177;919129;-66
2023/11/01 12:40:05;;;;;;;3.13;1.50;;;;;;;;;;754416;183;919219;-70
2023/11/01 12:42:30;;;;;;;2.27;1.10;;;;;;;;;;760979;184;817760;-69
2023/11/01 12:44:55;;;;;;;2.40;1.20;;;;;;;;;;755604;184;887842;-70
2023/11/01 12:47:21;;;;;;;2.40;1.30;;;;;;;;;;766197;180;919292;-66
2023/11/01 12:49:48;;;;;;;2.30;1.20;;;;;;;;;;759258;184;919592;-71
2023/11/01 12:52:14;;;;;;;2.40;1.20;;;;;;;;;;755655;184;913963;-66
2023/11/01 12:54:41;;;;;;;3.23;1.20;;;;;;;;;;756059;184;866612;-69
2023/11/01 12:57:06;;;;;;;2.90;1.27;;;;;;;;;;759376;184;914271;-66
2023/11/01 12:59:32;;;;;;;2.50;1.20;;;;;;;;;;755121;183;913076;-67
2023/11/01 13:01:58;;;;;;;2.77;1.30;;;;;;;;;;754676;183;914865;-70
2023/11/01 13:04:24;;;;;;;4.23;1.70;;;;;;;;;;755926;184;920471;-67
2023/11/01 13:06:50;;;;;;;2.40;1.10;;;;;;;;;;761352;184;871432;-67
2023/11/01 13:09:16;;;;;;;2.80;1.30;;;;;;;;;;760826;178;915995;-69
2023/11/01 13:11:42;;;;;;;3.33;1.40;;;;;;;;;;771537;177;619129;-65
2023/11/01 13:14:07;;;;;;;2.57;0.90;;;;;;;;;;760940;184;815613;-66
2023/11/01 13:16:33;;;;;;;2.77;1.10;;;;;;;;;;755395;183;848777;-66
2023/11/01 13:18:59;;;;;;;3.40;1.30;;;;;;;;;;755513;184;816358;-66
2023/11/01 13:21:25;;;;;;;2.00;1.00;;;;;;;;;;759719;184;919129;-70
2023/11/01 13:23:51;;;;;;;7.13;1.30;;;;;;;;;;756678;184;755990;-69
2023/11/01 13:26:17;;;;;;;2.73;0.90;;;;;;;;;;756388;184;915344;-65
2023/11/01 13:28:42;;;;;;;2.10;1.00;;;;;;;;;;763130;180;916489;-68
2023/11/01 13:31:08;;;;;;;2.93;0.97;;;;;;;;;;760419;180;922149;-70
2023/11/01 13:33:34;;;;;;;3.83;1.20;;;;;;;;;;755158;183;917360;-70
2023/11/01 13:36:00;;;;;;;3.43;1.00;;;;;;;;;;757218;183;814036;-69
2023/11/01 13:38:26;;;;;;;1.90;0.90;;;;;;;;;;764528;179;769420;-70
2023/11/01 13:40:52;;;;;;;2.20;1.10;;;;;;;;;;762168;182;921594;-65
2023/11/01 13:43:18;;;;;;;2.33;1.40;;;;;;;;;;756092;180;911836;-71
2023/11/01 13:45:43;;;;;;;2.20;0.80;;;;;;;;;;773166;179;814898;-70
2023/11/01 13:48:13;;;;;;;2.20;1.10;;;;;;;;;;775461;175;809770;-83
2023/11/01 13:50:41;;;;;;;2.40;1.30;;;;;;;;;;771490;175;1716111;-84
2023/11/01 13:53:05;;;;;;;2.90;1.30;;;;;;;;;;786775;177;634424;-83
2023/11/01 13:55:32;;;;;;;2.63;1.20;;;;;;;;;;791353;177;658257;-82
2023/11/01 13:57:57;;;;;;;5.13;1.30;;;;;;;;;;779869;177;631016;-81
2023/11/01 14:00:24;;;;;;;2.28;1.05;;;;;;;;;;780893;177;974771;-82
2023/11/01 14:02:49;;;;;;;3.80;1.33;;;;;;;;;;790791;177;1034218;-82
2023/11/01 14:05:15;;;;;;;3.12;1.65;;;;;;;;;;787682;177;872401;-80
2023/11/01 14:07:41;;;;;;;2.80;1.20;;;;;;;;;;787682;177;657259;-81
2023/11/01 14:10:09;;;;;;;4.10;1.63;;;;;;;;;;784461;178;624862;-83
2023/11/01 14:12:35;;;;;;;2.03;0.87;;;;;;;;;;787786;177;633338;-83
2023/11/01 14:15:00;;;;;;;3.25;1.52;;;;;;;;;;776000;177;1128387;-82
2023/11/01 14:17:26;;;;;;;2.10;1.00;;;;;;;;;;784809;178;674565;-82
2023/11/01 14:19:53;;;;;;;2.20;1.00;;;;;;;;;;780094;177;1632663;-84
2023/11/01 14:22:20;;;;;;;3.57;1.30;;;;;;;;;;778563;178;790302;-81